sensor_id;sensor_type;location;lat;lon;timestamp;P1;durP1;ratioP1;P2;durP2;ratioP2
46054;SDS011;31788;6.954;-71.872;2023-05-03T00:02:08;21.53;;;13.17;;
46054;SDS011;31788;6.954;-71.872;2023-05-03T00:04:38;22.47;;;13.23;;
46054;SDS011;31788;6.954;-71.872;2023-05-03T00:07:05;23.45;;;13.02;;
46054;SDS011;31788;6.954;-71.872;2023-05-03T00:09:33;22.52;;;12.73;;
46054;SDS011;31788;6.954;-71.872;2023-05-03T00:12:00;24.20;;;15.02;;
46054;SDS011;31788;6.954;-71.872;2023-05-03T00:14:27;19.02;;;11.93;;
46054;SDS011;31788;6.954;-71.872;2023-05-03T00:16:53;22.08;;;11.63;;
46054;SDS011;31788;6.954;-71.872;2023-05-03T00:19:20;18.23;;;11.15;;
46054;SDS011;31788;6.954;-71.872;2023-05-03T00:21:51;18.40;;;10.30;;
46054;SDS011;31788;6.954;-71.872;2023-05-03T00:24:18;16.75;;;10.73;;
46054;SDS011;31788;6.954;-71.872;2023-05-03T00:26:46;17.02;;;10.60;;
46054;SDS011;31788;6.954;-71.872;2023-05-03T00:29:13;17.35;;;10.82;;
46054;SDS011;31788;6.954;-71.872;2023-05-03T00:31:42;17.55;;;10.52;;
46054;SDS011;31788;6.954;-71.872;2023-05-03T00:37:02;15.30;;;9.75;;
46054;SDS011;31788;6.954;-71.872;2023-05-03T00:39:29;16.30;;;10.30;;
46054;SDS011;31788;6.954;-71.872;2023-05-03T00:41:56;17.73;;;10.02;;
46054;SDS011;31788;6.954;-71.872;2023-05-03T00:44:23;14.83;;;9.73;;
46054;SDS011;31788;6.954;-71.872;2023-05-03T00:46:51;14.30;;;9.60;;
46054;SDS011;31788;6.954;-71.872;2023-05-03T00:49:19;16.40;;;9.40;;
46054;SDS011;31788;6.954;-71.872;2023-05-03T00:51:45;15.98;;;9.75;;
46054;SDS011;31788;6.954;-71.872;2023-05-03T00:54:14;14.83;;;9.63;;
46054;SDS011;31788;6.954;-71.872;2023-05-03T00:56:40;15.25;;;9.45;;
46054;SDS011;31788;6.954;-71.872;2023-05-03T00:59:07;18.83;;;9.82;;
46054;SDS011;31788;6.954;-71.872;2023-05-03T01:01:34;20.17;;;10.85;;
46054;SDS011;31788;6.954;-71.872;2023-05-03T01:04:01;23.27;;;12.37;;
46054;SDS011;31788;6.954;-71.872;2023-05-03T01:09:04;32.60;;;12.05;;
46054;SDS011;31788;6.954;-71.872;2023-05-03T01:14:40;31.85;;;12.50;;
46054;SDS011;31788;6.954;-71.872;2023-05-03T01:17:28;22.80;;;10.50;;
46054;SDS011;31788;6.954;-71.872;2023-05-03T01:20:04;23.02;;;11.40;;
46054;SDS011;31788;6.954;-71.872;2023-05-03T01:22:44;14.82;;;9.85;;
46054;SDS011;31788;6.954;-71.872;2023-05-03T01:25:12;18.65;;;10.63;;
46054;SDS011;31788;6.954;-71.872;2023-05-03T01:27:41;16.73;;;10.27;;
46054;SDS011;31788;6.954;-71.872;2023-05-03T01:30:08;20.02;;;10.77;;
46054;SDS011;31788;6.954;-71.872;2023-05-03T01:32:45;18.17;;;10.02;;
46054;SDS011;31788;6.954;-71.872;2023-05-03T01:37:53;16.90;;;9.80;;
46054;SDS011;31788;6.954;-71.872;2023-05-03T01:40:22;15.68;;;9.85;;
46054;SDS011;31788;6.954;-71.872;2023-05-03T01:42:49;15.70;;;9.63;;
46054;SDS011;31788;6.954;-71.872;2023-05-03T01:45:17;17.85;;;9.75;;
46054;SDS011;31788;6.954;-71.872;2023-05-03T01:47:44;16.52;;;9.05;;
46054;SDS011;31788;6.954;-71.872;2023-05-03T01:50:10;14.65;;;9.65;;
46054;SDS011;31788;6.954;-71.872;2023-05-03T01:52:37;15.25;;;9.68;;
46054;SDS011;31788;6.954;-71.872;2023-05-03T01:55:04;16.23;;;9.55;;
46054;SDS011;31788;6.954;-71.872;2023-05-03T01:57:31;15.38;;;9.65;;
46054;SDS011;31788;6.954;-71.872;2023-05-03T01:59:57;16.20;;;9.32;;
46054;SDS011;31788;6.954;-71.872;2023-05-03T02:02:24;17.23;;;9.32;;
46054;SDS011;31788;6.954;-71.872;2023-05-03T02:04:50;15.88;;;9.77;;
46054;SDS011;31788;6.954;-71.872;2023-05-03T02:07:17;14.63;;;10.38;;
46054;SDS011;31788;6.954;-71.872;2023-05-03T02:09:44;17.88;;;9.75;;
46054;SDS011;31788;6.954;-71.872;2023-05-03T02:12:10;15.77;;;9.80;;
46054;SDS011;31788;6.954;-71.872;2023-05-03T02:14:38;15.55;;;9.18;;
46054;SDS011;31788;6.954;-71.872;2023-05-03T02:17:05;15.63;;;8.82;;
46054;SDS011;31788;6.954;-71.872;2023-05-03T02:19:32;14.43;;;8.35;;
46054;SDS011;31788;6.954;-71.872;2023-05-03T02:21:59;14.00;;;8.43;;
46054;SDS011;31788;6.954;-71.872;2023-05-03T02:24:26;13.98;;;8.35;;
46054;SDS011;31788;6.954;-71.872;2023-05-03T02:26:54;13.88;;;8.82;;
46054;SDS011;31788;6.954;-71.872;2023-05-03T02:29:20;15.90;;;8.23;;
46054;SDS011;31788;6.954;-71.872;2023-05-03T02:31:47;14.75;;;8.48;;
46054;SDS011;31788;6.954;-71.872;2023-05-03T02:34:13;15.55;;;9.80;;
46054;SDS011;31788;6.954;-71.872;2023-05-03T02:36:40;15.02;;;10.40;;
46054;SDS011;31788;6.954;-71.872;2023-05-03T02:39:07;16.92;;;10.27;;
46054;SDS011;31788;6.954;-71.872;2023-05-03T02:41:34;19.40;;;10.20;;
46054;SDS011;31788;6.954;-71.872;2023-05-03T02:44:01;20.38;;;10.98;;
46054;SDS011;31788;6.954;-71.872;2023-05-03T02:46:28;16.50;;;10.02;;
46054;SDS011;31788;6.954;-71.872;2023-05-03T02:48:55;18.50;;;9.98;;
46054;SDS011;31788;6.954;-71.872;2023-05-03T02:51:23;16.33;;;9.50;;
46054;SDS011;31788;6.954;-71.872;2023-05-03T02:53:50;13.82;;;9.00;;
46054;SDS011;31788;6.954;-71.872;2023-05-03T02:56:16;14.52;;;8.88;;
46054;SDS011;31788;6.954;-71.872;2023-05-03T02:58:43;13.75;;;8.52;;
46054;SDS011;31788;6.954;-71.872;2023-05-03T03:01:10;14.10;;;7.97;;
46054;SDS011;31788;6.954;-71.872;2023-05-03T03:03:37;14.23;;;7.78;;
46054;SDS011;31788;6.954;-71.872;2023-05-03T03:06:03;12.75;;;7.40;;
46054;SDS011;31788;6.954;-71.872;2023-05-03T03:08:30;14.60;;;7.47;;
46054;SDS011;31788;6.954;-71.872;2023-05-03T03:10:57;12.90;;;7.18;;
46054;SDS011;31788;6.954;-71.872;2023-05-03T03:13:23;10.60;;;6.15;;
46054;SDS011;31788;6.954;-71.872;2023-05-03T03:15:50;13.38;;;6.47;;
46054;SDS011;31788;6.954;-71.872;2023-05-03T03:18:16;10.35;;;6.43;;
46054;SDS011;31788;6.954;-71.872;2023-05-03T03:20:43;11.65;;;6.10;;
46054;SDS011;31788;6.954;-71.872;2023-05-03T03:23:10;9.23;;;5.90;;
46054;SDS011;31788;6.954;-71.872;2023-05-03T03:25:37;11.07;;;5.95;;
46054;SDS011;31788;6.954;-71.872;2023-05-03T03:28:03;10.65;;;5.70;;
46054;SDS011;31788;6.954;-71.872;2023-05-03T03:30:30;9.60;;;5.57;;
46054;SDS011;31788;6.954;-71.872;2023-05-03T03:32:57;8.57;;;5.50;;
46054;SDS011;31788;6.954;-71.872;2023-05-03T03:35:24;14.27;;;5.97;;
46054;SDS011;31788;6.954;-71.872;2023-05-03T03:37:52;9.57;;;5.40;;
46054;SDS011;31788;6.954;-71.872;2023-05-03T03:40:18;8.13;;;5.38;;
46054;SDS011;31788;6.954;-71.872;2023-05-03T03:42:45;7.47;;;5.00;;
46054;SDS011;31788;6.954;-71.872;2023-05-03T03:45:11;9.68;;;5.25;;
46054;SDS011;31788;6.954;-71.872;2023-05-03T03:47:38;9.23;;;4.93;;
46054;SDS011;31788;6.954;-71.872;2023-05-03T03:50:05;10.23;;;5.07;;
46054;SDS011;31788;6.954;-71.872;2023-05-03T03:52:32;9.43;;;5.25;;
46054;SDS011;31788;6.954;-71.872;2023-05-03T03:54:58;9.57;;;5.28;;
46054;SDS011;31788;6.954;-71.872;2023-05-03T03:57:26;7.97;;;4.93;;
46054;SDS011;31788;6.954;-71.872;2023-05-03T03:59:56;7.93;;;4.47;;
46054;SDS011;31788;6.954;-71.872;2023-05-03T04:02:23;8.90;;;4.93;;
46054;SDS011;31788;6.954;-71.872;2023-05-03T04:04:50;7.82;;;4.93;;
46054;SDS011;31788;6.954;-71.872;2023-05-03T04:07:17;6.13;;;4.47;;
46054;SDS011;31788;6.954;-71.872;2023-05-03T04:09:43;9.30;;;4.70;;
46054;SDS011;31788;6.954;-71.872;2023-05-03T04:12:10;6.63;;;4.40;;
46054;SDS011;31788;6.954;-71.872;2023-05-03T04:14:37;7.63;;;4.47;;
46054;SDS011;31788;6.954;-71.872;2023-05-03T04:17:04;9.17;;;4.27;;
46054;SDS011;31788;6.954;-71.872;2023-05-03T04:19:31;9.52;;;4.40;;
46054;SDS011;31788;6.954;-71.872;2023-05-03T04:21:57;8.70;;;4.40;;
46054;SDS011;31788;6.954;-71.872;2023-05-03T04:24:24;9.50;;;4.53;;
46054;SDS011;31788;6.954;-71.872;2023-05-03T04:26:55;8.90;;;4.47;;
46054;SDS011;31788;6.954;-71.872;2023-05-03T04:29:23;7.22;;;4.30;;
46054;SDS011;31788;6.954;-71.872;2023-05-03T04:31:50;7.28;;;4.10;;
46054;SDS011;31788;6.954;-71.872;2023-05-03T04:34:16;6.40;;;3.85;;
46054;SDS011;31788;6.954;-71.872;2023-05-03T04:36:43;7.45;;;4.18;;
46054;SDS011;31788;6.954;-71.872;2023-05-03T04:39:10;7.70;;;4.00;;
46054;SDS011;31788;6.954;-71.872;2023-05-03T04:41:38;9.07;;;3.97;;
46054;SDS011;31788;6.954;-71.872;2023-05-03T04:44:06;6.97;;;3.90;;
46054;SDS011;31788;6.954;-71.872;2023-05-03T04:46:33;7.43;;;3.90;;
46054;SDS011;31788;6.954;-71.872;2023-05-03T04:49:00;6.68;;;3.60;;
46054;SDS011;31788;6.954;-71.872;2023-05-03T04:51:26;7.80;;;4.03;;
46054;SDS011;31788;6.954;-71.872;2023-05-03T04:53:53;9.95;;;4.63;;
46054;SDS011;31788;6.954;-71.872;2023-05-03T04:56:20;10.77;;;6.33;;
46054;SDS011;31788;6.954;-71.872;2023-05-03T04:58:51;8.75;;;5.80;;
46054;SDS011;31788;6.954;-71.872;2023-05-03T05:01:21;11.18;;;5.05;;
46054;SDS011;31788;6.954;-71.872;2023-05-03T05:03:52;8.70;;;4.63;;
46054;SDS011;31788;6.954;-71.872;2023-05-03T05:06:19;6.70;;;4.45;;
46054;SDS011;31788;6.954;-71.872;2023-05-03T05:08:45;10.05;;;4.38;;
46054;SDS011;31788;6.954;-71.872;2023-05-03T05:11:12;7.50;;;3.88;;
46054;SDS011;31788;6.954;-71.872;2023-05-03T05:13:39;6.70;;;3.80;;
46054;SDS011;31788;6.954;-71.872;2023-05-03T05:16:06;8.48;;;3.70;;
46054;SDS011;31788;6.954;-71.872;2023-05-03T05:18:33;6.60;;;3.45;;
46054;SDS011;31788;6.954;-71.872;2023-05-03T05:20:59;6.72;;;3.47;;
46054;SDS011;31788;6.954;-71.872;2023-05-03T05:23:26;7.53;;;3.70;;
46054;SDS011;31788;6.954;-71.872;2023-05-03T05:25:53;6.18;;;3.47;;
46054;SDS011;31788;6.954;-71.872;2023-05-03T05:28:25;7.05;;;3.60;;
46054;SDS011;31788;6.954;-71.872;2023-05-03T05:30:52;7.88;;;3.47;;
46054;SDS011;31788;6.954;-71.872;2023-05-03T05:33:19;6.50;;;3.42;;
46054;SDS011;31788;6.954;-71.872;2023-05-03T05:35:46;5.38;;;3.03;;
46054;SDS011;31788;6.954;-71.872;2023-05-03T05:38:16;5.57;;;3.20;;
46054;SDS011;31788;6.954;-71.872;2023-05-03T05:40:43;5.97;;;3.10;;
46054;SDS011;31788;6.954;-71.872;2023-05-03T05:43:09;4.70;;;3.03;;
46054;SDS011;31788;6.954;-71.872;2023-05-03T05:45:36;5.25;;;3.22;;
46054;SDS011;31788;6.954;-71.872;2023-05-03T05:48:03;5.10;;;3.30;;
46054;SDS011;31788;6.954;-71.872;2023-05-03T05:50:30;6.27;;;3.17;;
46054;SDS011;31788;6.954;-71.872;2023-05-03T05:52:57;6.35;;;3.25;;
46054;SDS011;31788;6.954;-71.872;2023-05-03T05:55:23;7.25;;;3.55;;
46054;SDS011;31788;6.954;-71.872;2023-05-03T05:57:50;5.78;;;3.20;;
46054;SDS011;31788;6.954;-71.872;2023-05-03T06:00:17;5.30;;;3.22;;
46054;SDS011;31788;6.954;-71.872;2023-05-03T06:02:45;7.03;;;3.83;;
46054;SDS011;31788;6.954;-71.872;2023-05-03T06:05:11;5.47;;;3.30;;
46054;SDS011;31788;6.954;-71.872;2023-05-03T06:07:38;4.63;;;3.42;;
46054;SDS011;31788;6.954;-71.872;2023-05-03T06:10:05;7.07;;;3.65;;
46054;SDS011;31788;6.954;-71.872;2023-05-03T06:12:32;6.38;;;3.53;;
46054;SDS011;31788;6.954;-71.872;2023-05-03T06:14:59;6.53;;;3.33;;
46054;SDS011;31788;6.954;-71.872;2023-05-03T06:17:25;5.93;;;3.50;;
46054;SDS011;31788;6.954;-71.872;2023-05-03T06:19:52;7.28;;;3.42;;
46054;SDS011;31788;6.954;-71.872;2023-05-03T06:22:19;6.55;;;3.30;;
46054;SDS011;31788;6.954;-71.872;2023-05-03T06:24:45;5.22;;;3.00;;
46054;SDS011;31788;6.954;-71.872;2023-05-03T06:27:12;7.83;;;3.47;;
46054;SDS011;31788;6.954;-71.872;2023-05-03T06:29:39;6.32;;;3.20;;
46054;SDS011;31788;6.954;-71.872;2023-05-03T06:32:08;6.75;;;3.70;;
46054;SDS011;31788;6.954;-71.872;2023-05-03T06:34:35;5.63;;;3.38;;
46054;SDS011;31788;6.954;-71.872;2023-05-03T06:37:02;5.95;;;3.40;;
46054;SDS011;31788;6.954;-71.872;2023-05-03T06:39:28;6.23;;;2.93;;
46054;SDS011;31788;6.954;-71.872;2023-05-03T06:41:55;6.07;;;3.45;;
46054;SDS011;31788;6.954;-71.872;2023-05-03T06:44:22;4.45;;;2.78;;
46054;SDS011;31788;6.954;-71.872;2023-05-03T06:46:49;4.40;;;2.80;;
46054;SDS011;31788;6.954;-71.872;2023-05-03T06:49:16;5.78;;;2.80;;
46054;SDS011;31788;6.954;-71.872;2023-05-03T06:51:43;4.28;;;2.75;;
46054;SDS011;31788;6.954;-71.872;2023-05-03T06:54:09;5.05;;;2.60;;
46054;SDS011;31788;6.954;-71.872;2023-05-03T06:56:36;5.43;;;2.50;;
46054;SDS011;31788;6.954;-71.872;2023-05-03T06:59:03;4.38;;;2.55;;
46054;SDS011;31788;6.954;-71.872;2023-05-03T07:01:30;4.55;;;2.70;;
46054;SDS011;31788;6.954;-71.872;2023-05-03T07:03:57;6.93;;;2.65;;
46054;SDS011;31788;6.954;-71.872;2023-05-03T07:06:23;4.00;;;2.50;;
46054;SDS011;31788;6.954;-71.872;2023-05-03T07:08:50;4.15;;;2.55;;
46054;SDS011;31788;6.954;-71.872;2023-05-03T07:11:18;4.60;;;2.38;;
46054;SDS011;31788;6.954;-71.872;2023-05-03T07:13:49;5.47;;;2.45;;
46054;SDS011;31788;6.954;-71.872;2023-05-03T07:16:16;4.40;;;2.55;;
46054;SDS011;31788;6.954;-71.872;2023-05-03T07:18:44;4.65;;;2.28;;
46054;SDS011;31788;6.954;-71.872;2023-05-03T07:21:12;3.50;;;2.20;;
46054;SDS011;31788;6.954;-71.872;2023-05-03T07:23:39;4.47;;;2.28;;
46054;SDS011;31788;6.954;-71.872;2023-05-03T07:26:06;3.78;;;2.10;;
46054;SDS011;31788;6.954;-71.872;2023-05-03T07:28:33;4.57;;;2.20;;
46054;SDS011;31788;6.954;-71.872;2023-05-03T07:30:59;5.47;;;2.50;;
46054;SDS011;31788;6.954;-71.872;2023-05-03T07:33:28;2.88;;;1.90;;
46054;SDS011;31788;6.954;-71.872;2023-05-03T07:35:56;4.75;;;2.10;;
46054;SDS011;31788;6.954;-71.872;2023-05-03T07:38:22;4.15;;;2.15;;
46054;SDS011;31788;6.954;-71.872;2023-05-03T07:40:49;5.10;;;2.90;;
46054;SDS011;31788;6.954;-71.872;2023-05-03T07:43:16;7.53;;;2.58;;
46054;SDS011;31788;6.954;-71.872;2023-05-03T07:45:43;3.53;;;2.13;;
46054;SDS011;31788;6.954;-71.872;2023-05-03T07:48:10;5.70;;;2.30;;
46054;SDS011;31788;6.954;-71.872;2023-05-03T07:50:37;3.28;;;2.22;;
46054;SDS011;31788;6.954;-71.872;2023-05-03T07:53:06;4.10;;;2.10;;
46054;SDS011;31788;6.954;-71.872;2023-05-03T07:55:32;4.38;;;2.20;;
46054;SDS011;31788;6.954;-71.872;2023-05-03T07:58:01;3.92;;;2.58;;
46054;SDS011;31788;6.954;-71.872;2023-05-03T08:00:27;4.05;;;2.22;;
46054;SDS011;31788;6.954;-71.872;2023-05-03T08:02:54;4.73;;;2.20;;
46054;SDS011;31788;6.954;-71.872;2023-05-03T08:05:21;3.35;;;2.25;;
46054;SDS011;31788;6.954;-71.872;2023-05-03T08:07:48;3.67;;;2.10;;
46054;SDS011;31788;6.954;-71.872;2023-05-03T08:10:15;3.95;;;2.33;;
46054;SDS011;31788;6.954;-71.872;2023-05-03T08:12:42;3.33;;;2.20;;
46054;SDS011;31788;6.954;-71.872;2023-05-03T08:15:10;4.17;;;2.20;;
46054;SDS011;31788;6.954;-71.872;2023-05-03T08:17:40;4.55;;;2.30;;
46054;SDS011;31788;6.954;-71.872;2023-05-03T08:20:07;3.60;;;2.20;;
46054;SDS011;31788;6.954;-71.872;2023-05-03T08:22:35;4.90;;;2.10;;
46054;SDS011;31788;6.954;-71.872;2023-05-03T08:25:05;3.47;;;2.00;;
46054;SDS011;31788;6.954;-71.872;2023-05-03T08:27:32;4.18;;;2.20;;
46054;SDS011;31788;6.954;-71.872;2023-05-03T08:29:59;4.37;;;2.13;;
46054;SDS011;31788;6.954;-71.872;2023-05-03T08:32:26;3.05;;;1.80;;
46054;SDS011;31788;6.954;-71.872;2023-05-03T08:34:54;4.15;;;2.00;;
46054;SDS011;31788;6.954;-71.872;2023-05-03T08:37:21;3.03;;;1.77;;
46054;SDS011;31788;6.954;-71.872;2023-05-03T08:39:48;4.55;;;2.00;;
46054;SDS011;31788;6.954;-71.872;2023-05-03T08:42:15;3.20;;;1.85;;
46054;SDS011;31788;6.954;-71.872;2023-05-03T08:44:46;6.22;;;2.10;;
46054;SDS011;31788;6.954;-71.872;2023-05-03T08:47:14;4.43;;;2.10;;
46054;SDS011;31788;6.954;-71.872;2023-05-03T08:49:44;3.60;;;1.73;;
46054;SDS011;31788;6.954;-71.872;2023-05-03T08:52:13;4.10;;;2.33;;
46054;SDS011;31788;6.954;-71.872;2023-05-03T08:54:45;3.05;;;1.80;;
46054;SDS011;31788;6.954;-71.872;2023-05-03T08:57:13;3.92;;;1.70;;
46054;SDS011;31788;6.954;-71.872;2023-05-03T08:59:50;4.78;;;2.40;;
46054;SDS011;31788;6.954;-71.872;2023-05-03T09:02:18;5.47;;;2.20;;
46054;SDS011;31788;6.954;-71.872;2023-05-03T09:04:45;4.45;;;1.92;;
46054;SDS011;31788;6.954;-71.872;2023-05-03T09:07:12;4.07;;;2.00;;
46054;SDS011;31788;6.954;-71.872;2023-05-03T09:09:42;3.85;;;1.90;;
46054;SDS011;31788;6.954;-71.872;2023-05-03T09:12:08;4.55;;;2.00;;
46054;SDS011;31788;6.954;-71.872;2023-05-03T09:14:42;3.50;;;2.10;;
46054;SDS011;31788;6.954;-71.872;2023-05-03T09:17:13;4.20;;;1.70;;
46054;SDS011;31788;6.954;-71.872;2023-05-03T09:19:49;3.75;;;1.80;;
46054;SDS011;31788;6.954;-71.872;2023-05-03T09:22:24;4.72;;;1.92;;
46054;SDS011;31788;6.954;-71.872;2023-05-03T09:24:59;3.13;;;1.70;;
46054;SDS011;31788;6.954;-71.872;2023-05-03T09:27:26;2.30;;;1.65;;
46054;SDS011;31788;6.954;-71.872;2023-05-03T09:29:53;4.97;;;1.80;;
46054;SDS011;31788;6.954;-71.872;2023-05-03T09:32:20;3.78;;;1.77;;
46054;SDS011;31788;6.954;-71.872;2023-05-03T09:34:47;3.95;;;1.85;;
46054;SDS011;31788;6.954;-71.872;2023-05-03T09:37:13;3.95;;;2.15;;
46054;SDS011;31788;6.954;-71.872;2023-05-03T09:39:41;4.88;;;1.67;;
46054;SDS011;31788;6.954;-71.872;2023-05-03T09:42:16;4.95;;;2.05;;
46054;SDS011;31788;6.954;-71.872;2023-05-03T09:44:44;3.35;;;1.98;;
46054;SDS011;31788;6.954;-71.872;2023-05-03T09:47:18;3.55;;;2.05;;
46054;SDS011;31788;6.954;-71.872;2023-05-03T09:49:49;7.25;;;2.38;;
46054;SDS011;31788;6.954;-71.872;2023-05-03T09:52:16;4.35;;;2.05;;
46054;SDS011;31788;6.954;-71.872;2023-05-03T09:54:44;3.55;;;2.20;;
46054;SDS011;31788;6.954;-71.872;2023-05-03T09:57:11;6.13;;;2.20;;
46054;SDS011;31788;6.954;-71.872;2023-05-03T09:59:39;5.53;;;2.30;;
46054;SDS011;31788;6.954;-71.872;2023-05-03T10:02:06;4.25;;;2.10;;
46054;SDS011;31788;6.954;-71.872;2023-05-03T10:04:43;5.70;;;2.60;;
46054;SDS011;31788;6.954;-71.872;2023-05-03T10:07:16;4.63;;;2.40;;
46054;SDS011;31788;6.954;-71.872;2023-05-03T10:09:43;5.05;;;2.30;;
46054;SDS011;31788;6.954;-71.872;2023-05-03T10:12:13;4.45;;;2.20;;
46054;SDS011;31788;6.954;-71.872;2023-05-03T10:14:42;6.60;;;2.50;;
46054;SDS011;31788;6.954;-71.872;2023-05-03T10:17:15;5.35;;;2.70;;
46054;SDS011;31788;6.954;-71.872;2023-05-03T10:19:46;6.55;;;2.20;;
46054;SDS011;31788;6.954;-71.872;2023-05-03T10:22:16;5.40;;;2.53;;
46054;SDS011;31788;6.954;-71.872;2023-05-03T10:32:57;8.88;;;2.85;;
46054;SDS011;31788;6.954;-71.872;2023-05-03T10:35:25;9.35;;;2.80;;
46054;SDS011;31788;6.954;-71.872;2023-05-03T10:37:53;10.15;;;3.00;;
46054;SDS011;31788;6.954;-71.872;2023-05-03T10:40:21;7.60;;;2.70;;
46054;SDS011;31788;6.954;-71.872;2023-05-03T10:42:52;9.25;;;2.88;;
46054;SDS011;31788;6.954;-71.872;2023-05-03T10:45:25;9.27;;;2.92;;
46054;SDS011;31788;6.954;-71.872;2023-05-03T10:50:40;8.70;;;3.70;;
46054;SDS011;31788;6.954;-71.872;2023-05-03T10:53:08;8.20;;;3.45;;
46054;SDS011;31788;6.954;-71.872;2023-05-03T10:56:06;12.45;;;3.30;;
46054;SDS011;31788;6.954;-71.872;2023-05-03T10:58:35;7.07;;;2.92;;
46054;SDS011;31788;6.954;-71.872;2023-05-03T11:01:03;8.57;;;3.47;;
46054;SDS011;31788;6.954;-71.872;2023-05-03T11:06:33;11.02;;;3.65;;
46054;SDS011;31788;6.954;-71.872;2023-05-03T11:09:02;8.70;;;3.63;;
46054;SDS011;31788;6.954;-71.872;2023-05-03T11:11:31;7.95;;;3.55;;
46054;SDS011;31788;6.954;-71.872;2023-05-03T11:13:58;10.82;;;4.40;;
46054;SDS011;31788;6.954;-71.872;2023-05-03T11:16:25;9.40;;;4.63;;
46054;SDS011;31788;6.954;-71.872;2023-05-03T11:18:52;8.82;;;4.93;;
46054;SDS011;31788;6.954;-71.872;2023-05-03T11:21:19;8.73;;;4.38;;
46054;SDS011;31788;6.954;-71.872;2023-05-03T11:23:47;7.43;;;3.40;;
46054;SDS011;31788;6.954;-71.872;2023-05-03T11:26:14;10.55;;;4.20;;
46054;SDS011;31788;6.954;-71.872;2023-05-03T11:28:41;9.60;;;3.95;;
46054;SDS011;31788;6.954;-71.872;2023-05-03T11:31:09;12.27;;;4.50;;
46054;SDS011;31788;6.954;-71.872;2023-05-03T11:33:37;9.88;;;3.80;;
46054;SDS011;31788;6.954;-71.872;2023-05-03T11:36:05;9.43;;;3.83;;
46054;SDS011;31788;6.954;-71.872;2023-05-03T11:38:34;9.48;;;3.50;;
46054;SDS011;31788;6.954;-71.872;2023-05-03T11:41:11;11.48;;;7.05;;
46054;SDS011;31788;6.954;-71.872;2023-05-03T11:43:45;9.30;;;4.30;;
46054;SDS011;31788;6.954;-71.872;2023-05-03T11:46:14;8.65;;;4.20;;
46054;SDS011;31788;6.954;-71.872;2023-05-03T11:48:45;6.75;;;3.78;;
46054;SDS011;31788;6.954;-71.872;2023-05-03T11:51:12;5.57;;;3.28;;
46054;SDS011;31788;6.954;-71.872;2023-05-03T11:53:40;8.20;;;3.22;;
46054;SDS011;31788;6.954;-71.872;2023-05-03T11:56:10;6.00;;;3.28;;
46054;SDS011;31788;6.954;-71.872;2023-05-03T11:58:54;6.13;;;3.87;;
46054;SDS011;31788;6.954;-71.872;2023-05-03T12:01:27;7.68;;;4.38;;
46054;SDS011;31788;6.954;-71.872;2023-05-03T12:06:24;5.03;;;3.00;;
46054;SDS011;31788;6.954;-71.872;2023-05-03T12:08:55;7.57;;;3.47;;
46054;SDS011;31788;6.954;-71.872;2023-05-03T12:11:22;7.22;;;3.17;;
46054;SDS011;31788;6.954;-71.872;2023-05-03T12:13:59;7.30;;;3.47;;
46054;SDS011;31788;6.954;-71.872;2023-05-03T12:16:27;4.57;;;3.10;;
46054;SDS011;31788;6.954;-71.872;2023-05-03T12:19:34;6.60;;;3.10;;
46054;SDS011;31788;6.954;-71.872;2023-05-03T12:22:01;7.68;;;3.78;;
46054;SDS011;31788;6.954;-71.872;2023-05-03T12:24:28;6.17;;;3.03;;
46054;SDS011;31788;6.954;-71.872;2023-05-03T12:26:54;6.97;;;2.97;;
46054;SDS011;31788;6.954;-71.872;2023-05-03T12:29:22;7.37;;;2.73;;
46054;SDS011;31788;6.954;-71.872;2023-05-03T12:31:49;6.32;;;4.30;;
46054;SDS011;31788;6.954;-71.872;2023-05-03T12:34:16;8.25;;;4.35;;
46054;SDS011;31788;6.954;-71.872;2023-05-03T12:36:42;8.38;;;5.50;;
46054;SDS011;31788;6.954;-71.872;2023-05-03T12:39:09;10.45;;;6.88;;
46054;SDS011;31788;6.954;-71.872;2023-05-03T12:41:37;8.57;;;6.72;;
46054;SDS011;31788;6.954;-71.872;2023-05-03T12:44:04;8.93;;;6.50;;
46054;SDS011;31788;6.954;-71.872;2023-05-03T12:46:31;8.75;;;6.13;;
46054;SDS011;31788;6.954;-71.872;2023-05-03T12:48:57;10.20;;;5.68;;
46054;SDS011;31788;6.954;-71.872;2023-05-03T12:51:24;7.65;;;5.43;;
46054;SDS011;31788;6.954;-71.872;2023-05-03T12:53:52;7.60;;;5.13;;
46054;SDS011;31788;6.954;-71.872;2023-05-03T12:56:18;7.78;;;4.90;;
46054;SDS011;31788;6.954;-71.872;2023-05-03T12:58:45;5.97;;;4.40;;
46054;SDS011;31788;6.954;-71.872;2023-05-03T13:01:14;7.47;;;4.50;;
46054;SDS011;31788;6.954;-71.872;2023-05-03T13:03:43;9.02;;;4.05;;
46054;SDS011;31788;6.954;-71.872;2023-05-03T13:06:09;5.88;;;4.07;;
46054;SDS011;31788;6.954;-71.872;2023-05-03T13:08:36;6.37;;;3.80;;
46054;SDS011;31788;6.954;-71.872;2023-05-03T13:11:03;5.55;;;3.80;;
46054;SDS011;31788;6.954;-71.872;2023-05-03T13:13:29;7.45;;;3.72;;
46054;SDS011;31788;6.954;-71.872;2023-05-03T13:15:57;7.10;;;3.75;;
46054;SDS011;31788;6.954;-71.872;2023-05-03T13:18:24;4.43;;;3.37;;
46054;SDS011;31788;6.954;-71.872;2023-05-03T13:20:51;5.65;;;3.47;;
46054;SDS011;31788;6.954;-71.872;2023-05-03T13:23:18;5.03;;;3.47;;
46054;SDS011;31788;6.954;-71.872;2023-05-03T13:25:44;9.18;;;4.65;;
46054;SDS011;31788;6.954;-71.872;2023-05-03T13:28:12;6.90;;;5.38;;
46054;SDS011;31788;6.954;-71.872;2023-05-03T13:30:39;7.80;;;5.37;;
46054;SDS011;31788;6.954;-71.872;2023-05-03T13:33:05;7.90;;;5.40;;
46054;SDS011;31788;6.954;-71.872;2023-05-03T13:35:32;7.50;;;5.07;;
46054;SDS011;31788;6.954;-71.872;2023-05-03T13:37:59;6.78;;;4.70;;
46054;SDS011;31788;6.954;-71.872;2023-05-03T13:40:26;9.23;;;4.60;;
46054;SDS011;31788;6.954;-71.872;2023-05-03T13:42:53;6.88;;;4.00;;
46054;SDS011;31788;6.954;-71.872;2023-05-03T13:45:20;6.80;;;4.47;;
46054;SDS011;31788;6.954;-71.872;2023-05-03T13:47:46;6.15;;;4.38;;
46054;SDS011;31788;6.954;-71.872;2023-05-03T13:50:13;4.93;;;3.72;;
46054;SDS011;31788;6.954;-71.872;2023-05-03T13:52:40;5.95;;;4.00;;
46054;SDS011;31788;6.954;-71.872;2023-05-03T13:55:08;4.30;;;3.55;;
46054;SDS011;31788;6.954;-71.872;2023-05-03T13:57:35;5.28;;;3.90;;
46054;SDS011;31788;6.954;-71.872;2023-05-03T14:00:01;5.35;;;3.42;;
46054;SDS011;31788;6.954;-71.872;2023-05-03T14:02:30;6.20;;;3.20;;
46054;SDS011;31788;6.954;-71.872;2023-05-03T14:04:57;5.80;;;3.50;;
46054;SDS011;31788;6.954;-71.872;2023-05-03T14:07:23;6.53;;;3.50;;
46054;SDS011;31788;6.954;-71.872;2023-05-03T14:09:50;4.90;;;3.47;;
46054;SDS011;31788;6.954;-71.872;2023-05-03T14:12:17;4.85;;;3.40;;
46054;SDS011;31788;6.954;-71.872;2023-05-03T14:14:43;5.63;;;3.47;;
46054;SDS011;31788;6.954;-71.872;2023-05-03T14:17:10;6.05;;;3.25;;
46054;SDS011;31788;6.954;-71.872;2023-05-03T14:19:37;5.32;;;3.45;;
46054;SDS011;31788;6.954;-71.872;2023-05-03T14:22:04;7.43;;;3.30;;
46054;SDS011;31788;6.954;-71.872;2023-05-03T14:24:31;5.88;;;3.28;;
46054;SDS011;31788;6.954;-71.872;2023-05-03T14:26:57;5.65;;;3.20;;
46054;SDS011;31788;6.954;-71.872;2023-05-03T14:29:25;6.00;;;3.43;;
46054;SDS011;31788;6.954;-71.872;2023-05-03T14:31:52;5.50;;;3.15;;
46054;SDS011;31788;6.954;-71.872;2023-05-03T14:34:20;6.28;;;3.30;;
46054;SDS011;31788;6.954;-71.872;2023-05-03T14:36:47;4.93;;;3.10;;
46054;SDS011;31788;6.954;-71.872;2023-05-03T14:39:14;5.18;;;3.25;;
46054;SDS011;31788;6.954;-71.872;2023-05-03T14:41:41;5.55;;;3.10;;
46054;SDS011;31788;6.954;-71.872;2023-05-03T14:44:07;9.93;;;3.42;;
46054;SDS011;31788;6.954;-71.872;2023-05-03T14:46:34;4.45;;;3.10;;
46054;SDS011;31788;6.954;-71.872;2023-05-03T14:49:01;6.45;;;3.38;;
46054;SDS011;31788;6.954;-71.872;2023-05-03T14:51:27;5.47;;;3.30;;
46054;SDS011;31788;6.954;-71.872;2023-05-03T14:53:54;7.43;;;3.80;;
46054;SDS011;31788;6.954;-71.872;2023-05-03T14:56:20;7.63;;;3.63;;
46054;SDS011;31788;6.954;-71.872;2023-05-03T14:58:47;5.20;;;3.45;;
46054;SDS011;31788;6.954;-71.872;2023-05-03T15:01:21;8.15;;;3.70;;
46054;SDS011;31788;6.954;-71.872;2023-05-03T15:03:48;7.15;;;3.70;;